Time;durP1;ratioP1;P1;durP2;ratioP2;P2;SDS_P1;SDS_P2;PMS_P1;PMS_P2;Temp;Humidity;BMP_temperature;BMP_pressure;BME280_temperature;BME280_humidity;BME280_pressure;Samples;Min_cycle;Max_cycle;Signal;HPM_P1;HPM_P2
2023/01/22 00:01:17;;;;;;;20.95;5.35;;;;;;;14.05;66.86;101137.69;5029746;28;20029;-83
2023/01/22 00:03:44;;;;;;;53.30;7.13;;;;;;;14.05;67.15;101135.00;5030021;28;20113;-83
2023/01/22 00:06:10;;;;;;;27.30;6.50;;;;;;;14.06;67.04;101133.16;5030242;28;20029;-84
2023/01/22 00:08:36;;;;;;;24.73;6.82;;;;;;;14.11;67.26;101128.19;5030303;28;20049;-82
2023/01/22 00:11:03;;;;;;;17.92;4.82;;;;;;;14.25;67.15;101140.50;5029782;28;20061;-85
2023/01/22 00:13:28;;;;;;;26.30;6.00;;;;;;;14.33;66.74;101138.00;5029567;28;20036;-83
2023/01/22 00:15:56;;;;;;;24.85;5.00;;;;;;;14.33;65.74;101135.28;5029808;28;20029;-83
2023/01/22 00:18:22;;;;;;;17.48;5.43;;;;;;;14.34;65.56;101137.03;5029646;28;20116;-83
2023/01/22 00:20:52;;;;;;;34.00;14.68;;;;;;;14.33;64.80;101138.00;5030105;28;20116;-83
2023/01/22 00:23:18;;;;;;;12.52;4.45;;;;;;;14.25;64.71;101133.22;5008411;28;20077;-83
2023/01/22 00:25:44;;;;;;;24.17;5.93;;;;;;;14.30;64.72;101140.94;5011556;28;20524;-84
2023/01/22 00:28:10;;;;;;;15.00;5.13;;;;;;;14.30;64.29;101135.53;5013585;28;20041;-84
2023/01/22 00:30:36;;;;;;;14.25;4.40;;;;;;;14.30;63.98;101143.66;5014395;28;20057;-83
2023/01/22 00:33:02;;;;;;;13.43;5.03;;;;;;;14.17;64.14;101144.75;5024866;28;20037;-82
2023/01/22 00:35:27;;;;;;;17.02;5.38;;;;;;;14.16;64.68;101137.59;5028739;28;20046;-83
2023/01/22 00:37:53;;;;;;;17.15;4.28;;;;;;;14.18;64.55;101130.22;5032652;28;20029;-84
2023/01/22 00:40:18;;;;;;;23.65;6.72;;;;;;;14.16;64.37;101136.75;5034811;28;20702;-82
2023/01/22 00:42:44;;;;;;;17.42;5.75;;;;;;;14.16;64.23;101132.19;5032977;28;20032;-83
2023/01/22 00:45:12;;;;;;;26.40;4.82;;;;;;;14.22;64.41;101146.19;5032543;28;20562;-83
2023/01/22 00:47:38;;;;;;;15.18;5.72;;;;;;;14.08;65.05;101118.50;5032720;28;20030;-83
2023/01/22 00:50:04;;;;;;;18.27;4.75;;;;;;;14.15;65.30;101135.06;5032530;28;20029;-83
2023/01/22 00:52:29;;;;;;;20.13;4.68;;;;;;;14.02;65.42;101118.19;5032693;28;20472;-83
2023/01/22 00:54:55;;;;;;;17.48;4.43;;;;;;;14.12;65.65;101148.84;5032333;28;20114;-83
2023/01/22 00:57:20;;;;;;;25.77;5.97;;;;;;;14.07;66.18;101146.53;5032471;28;20584;-83
2023/01/22 00:59:50;;;;;;;15.88;4.40;;;;;;;14.08;65.94;101140.13;5032506;28;20417;-83
2023/01/22 01:02:16;;;;;;;23.73;5.30;;;;;;;14.03;66.49;101141.53;5033714;28;20033;-83
2023/01/22 01:04:42;;;;;;;21.63;5.15;;;;;;;14.09;66.09;101149.13;5016856;28;20034;-82
2023/01/22 01:07:07;;;;;;;20.05;4.70;;;;;;;13.94;66.55;101143.19;5043222;28;20037;-82
2023/01/22 01:09:33;;;;;;;18.55;5.20;;;;;;;13.86;66.99;101142.13;5037643;28;20033;-82
2023/01/22 01:11:59;;;;;;;13.38;4.03;;;;;;;13.79;67.39;101160.72;5057055;28;20037;-83
2023/01/22 01:14:25;;;;;;;20.75;4.35;;;;;;;13.78;67.54;101159.03;5057514;28;20072;-82
2023/01/22 01:16:51;;;;;;;20.38;4.45;;;;;;;13.95;67.24;101161.13;5053789;28;20091;-84
2023/01/22 01:19:17;;;;;;;18.73;4.95;;;;;;;14.06;67.12;101161.06;5050979;28;20033;-83
2023/01/22 01:21:43;;;;;;;28.05;7.35;;;;;;;14.07;67.07;101159.19;5042778;28;20405;-83
2023/01/22 01:24:09;;;;;;;37.97;5.93;;;;;;;14.07;67.35;101156.47;5041853;28;20030;-83
2023/01/22 01:26:35;;;;;;;19.45;5.07;;;;;;;14.10;67.60;101159.78;5036908;28;20056;-84
2023/01/22 01:29:03;;;;;;;18.17;4.47;;;;;;;14.13;67.33;101153.25;5040200;28;20029;-82
2023/01/22 01:31:29;;;;;;;13.75;4.43;;;;;;;14.19;67.09;101161.69;5038167;28;20029;-83
2023/01/22 01:33:55;;;;;;;14.25;4.85;;;;;;;14.14;66.94;101155.81;5040095;28;20045;-85
2023/01/22 01:36:23;;;;;;;14.30;4.90;;;;;;;14.14;67.41;101147.72;5036674;28;20025;-83
2023/01/22 01:38:50;;;;;;;25.10;6.40;;;;;;;14.28;67.06;101151.88;5038480;28;20025;-83
2023/01/22 01:41:20;;;;;;;18.63;4.82;;;;;;;14.29;66.81;101147.34;5015752;28;20494;-83
2023/01/22 01:44:04;;;;;;;17.75;4.03;;;;;;;14.29;66.08;101150.03;5028192;28;20091;-83
2023/01/22 01:46:30;;;;;;;15.60;5.15;;;;;;;14.29;65.82;101139.22;5031506;28;20032;-82
2023/01/22 01:48:55;;;;;;;18.58;4.65;;;;;;;14.29;65.36;101148.19;5031157;28;20025;-82
2023/01/22 01:51:28;;;;;;;16.60;5.20;;;;;;;14.36;64.93;101154.81;5037335;28;20026;-84
2023/01/22 01:53:55;;;;;;;19.67;5.53;;;;;;;14.33;64.95;101146.97;5043043;28;20060;-83
2023/01/22 01:56:27;;;;;;;19.58;5.65;;;;;;;14.30;64.91;101149.94;5037051;28;21018;-83
2023/01/22 01:58:57;;;;;;;16.13;5.15;;;;;;;14.30;65.37;101124.72;5039646;28;20117;-82
2023/01/22 02:01:25;;;;;;;16.10;5.30;;;;;;;14.39;64.73;101142.88;5033778;28;20082;-83
2023/01/22 02:03:51;;;;;;;20.10;5.20;;;;;;;14.44;64.22;101151.41;5038750;28;20053;-83
2023/01/22 02:06:18;;;;;;;18.15;4.22;;;;;;;14.41;64.23;101140.88;5019129;28;20036;-82
2023/01/22 02:08:46;;;;;;;15.27;4.28;;;;;;;14.45;64.14;101147.72;5033893;28;20028;-83
2023/01/22 02:11:13;;;;;;;20.08;4.65;;;;;;;14.42;64.69;101142.59;5033623;28;20393;-83
2023/01/22 02:13:44;;;;;;;13.82;4.03;;;;;;;14.39;64.72;101137.44;5031149;28;20120;-83
2023/01/22 02:16:10;;;;;;;35.00;6.18;;;;;;;14.55;64.93;101148.63;5032153;28;20026;-83
2023/01/22 02:18:36;;;;;;;21.02;4.18;;;;;;;14.51;65.10;101147.19;5031516;28;21149;-83
2023/01/22 02:21:02;;;;;;;25.45;4.97;;;;;;;14.57;64.95;101144.78;5031582;28;20029;-83
2023/01/22 02:23:30;;;;;;;18.00;4.93;;;;;;;14.63;65.16;101146.09;5030842;28;20033;-83
2023/01/22 02:25:57;;;;;;;17.70;5.40;;;;;;;14.50;65.65;101137.34;5031177;28;20033;-82
2023/01/22 02:28:23;;;;;;;34.92;5.80;;;;;;;14.67;65.34;101136.69;5032284;28;20477;-84
2023/01/22 02:30:49;;;;;;;23.15;6.18;;;;;;;14.73;65.21;101136.13;5031759;28;20131;-84
2023/01/22 02:33:15;;;;;;;26.85;5.10;;;;;;;14.79;65.01;101138.28;5031401;28;20029;-83
2023/01/22 02:35:40;;;;;;;22.17;4.35;;;;;;;14.57;65.25;101133.09;5030861;28;20483;-82
2023/01/22 02:38:06;;;;;;;18.77;4.80;;;;;;;14.65;65.53;101144.06;5033333;28;20026;-82
2023/01/22 02:40:32;;;;;;;20.20;5.68;;;;;;;14.58;65.80;101132.97;5036237;28;20028;-82
2023/01/22 02:42:58;;;;;;;17.33;4.47;;;;;;;14.58;66.12;101135.69;5034751;28;20455;-84
2023/01/22 02:45:23;;;;;;;21.77;5.53;;;;;;;14.58;66.01;101138.38;5031171;28;20053;-84
2023/01/22 02:47:49;;;;;;;21.27;4.45;;;;;;;14.50;66.45;101134.63;5030284;28;20485;-84
2023/01/22 02:50:15;;;;;;;19.95;4.70;;;;;;;14.51;66.65;101139.94;5031009;28;20048;-83
2023/01/22 02:52:40;;;;;;;30.30;5.03;;;;;;;14.39;66.88;101148.28;5030772;28;20072;-83
2023/01/22 02:55:06;;;;;;;21.02;4.95;;;;;;;14.38;67.25;101141.16;5030596;28;20057;-83
2023/01/22 02:57:32;;;;;;;23.90;4.68;;;;;;;14.28;67.11;101129.41;5030306;28;20047;-84
2023/01/22 02:59:58;;;;;;;24.33;5.72;;;;;;;14.24;67.53;101144.19;5030525;28;20033;-84
2023/01/22 03:02:24;;;;;;;19.20;4.88;;;;;;;14.24;67.52;101136.06;5002439;28;20084;-82
2023/01/22 03:04:49;;;;;;;19.05;4.60;;;;;;;14.29;67.03;101141.94;5011209;28;20030;-84
2023/01/22 03:07:16;;;;;;;30.77;6.30;;;;;;;14.24;67.86;101139.66;4992974;28;20397;-83
2023/01/22 03:09:42;;;;;;;16.15;4.35;;;;;;;14.27;67.42;101146.63;5012128;28;20033;-83
2023/01/22 03:12:07;;;;;;;12.38;4.05;;;;;;;14.24;67.25;101147.75;5029830;28;20098;-83
2023/01/22 03:22:46;;;;;;;17.80;5.00;;;;;;;14.10;67.57;101139.97;5030066;28;21091;-83
2023/01/22 03:25:11;;;;;;;17.48;4.38;;;;;;;14.11;67.50;101156.09;5030074;28;20029;-83
2023/01/22 03:28:07;;;;;;;23.52;6.05;;;;;;;14.09;67.65;101160.81;5030733;28;20026;-84
2023/01/22 03:30:22;;;;;;;25.08;5.57;;;;;;;14.21;67.46;101161.56;5029901;28;20052;-83
2023/01/22 03:32:47;;;;;;;19.52;5.03;;;;;;;14.33;66.98;101160.50;5029720;28;20105;-84
2023/01/22 03:35:13;;;;;;;13.32;3.85;;;;;;;14.33;66.75;101148.81;5030391;28;20034;-84
2023/01/22 03:37:38;;;;;;;13.88;3.30;;;;;;;14.37;66.38;101161.94;5030422;28;20378;-84
2023/01/22 03:40:04;;;;;;;33.30;5.32;;;;;;;14.35;66.00;101152.25;5035434;28;20052;-84
2023/01/22 03:42:30;;;;;;;18.42;4.38;;;;;;;14.43;65.65;101160.56;5037507;28;20108;-83
2023/01/22 03:44:55;;;;;;;20.27;4.53;;;;;;;14.35;65.98;101157.66;5033426;28;20197;-84
2023/01/22 03:47:21;;;;;;;24.55;5.00;;;;;;;14.40;65.79;101167.06;5029665;28;20025;-84
2023/01/22 03:49:46;;;;;;;15.45;3.97;;;;;;;14.43;65.99;101165.97;5029776;28;20062;-85
2023/01/22 03:52:12;;;;;;;18.30;4.95;;;;;;;14.45;65.49;101153.16;5029731;28;20033;-84
2023/01/22 03:54:37;;;;;;;13.73;3.83;;;;;;;14.42;65.24;101156.13;5030095;28;20028;-83
2023/01/22 03:57:02;;;;;;;15.05;4.32;;;;;;;14.35;65.43;101152.25;5030154;28;20021;-85
2023/01/22 03:59:28;;;;;;;19.98;4.97;;;;;;;14.36;65.54;101144.00;5029519;28;20034;-82
2023/01/22 04:01:53;;;;;;;15.77;5.00;;;;;;;14.22;65.50;101154.31;5032816;28;20064;-84
2023/01/22 04:04:19;;;;;;;16.73;4.75;;;;;;;14.23;65.92;101161.41;5033363;28;20210;-83
2023/01/22 04:06:45;;;;;;;14.25;4.50;;;;;;;14.27;65.81;101155.59;5033464;28;20158;-84
2023/01/22 04:09:10;;;;;;;14.82;4.05;;;;;;;14.27;65.76;101154.75;5033794;28;20038;-83
2023/01/22 04:11:35;;;;;;;11.95;4.45;;;;;;;14.20;65.43;101165.25;5033305;28;20022;-83
2023/01/22 04:14:01;;;;;;;16.17;5.05;;;;;;;14.12;65.74;101160.53;5033659;28;20031;-83
2023/01/22 04:16:26;;;;;;;21.05;4.45;;;;;;;14.17;65.55;101160.09;5033817;28;20021;-84
2023/01/22 04:18:52;;;;;;;28.35;5.15;;;;;;;14.14;65.48;101166.66;5033561;28;20116;-83
2023/01/22 04:21:17;;;;;;;31.27;4.47;;;;;;;14.20;65.25;101181.47;5033277;28;20036;-84
2023/01/22 04:23:43;;;;;;;16.02;4.95;;;;;;;14.19;64.97;101168.94;5033589;28;21165;-83
2023/01/22 04:26:08;;;;;;;15.95;3.90;;;;;;;14.19;65.09;101179.75;5033031;28;20026;-84
2023/01/22 04:28:34;;;;;;;12.10;3.72;;;;;;;14.13;65.16;101175.75;5033042;28;20044;-82
2023/01/22 04:30:59;;;;;;;20.23;5.47;;;;;;;14.13;64.93;101181.16;5030866;28;20127;-83
2023/01/22 04:33:25;;;;;;;23.30;5.45;;;;;;;14.17;64.92;101179.91;5013491;28;20026;-83
2023/01/22 04:35:53;;;;;;;14.48;4.07;;;;;;;14.21;64.77;101187.75;5013820;28;20467;-85
2023/01/22 04:38:19;;;;;;;18.45;5.47;;;;;;;14.35;64.87;101184.72;5017915;28;20037;-84
2023/01/22 04:40:44;;;;;;;39.83;11.35;;;;;;;14.41;64.27;101181.47;5027343;28;20091;-84
2023/01/22 04:43:10;;;;;;;20.17;6.15;;;;;;;14.44;63.71;101184.75;5032622;28;20061;-83
2023/01/22 04:45:35;;;;;;;20.77;4.45;;;;;;;14.41;63.25;101174.22;5027653;28;20558;-84
2023/01/22 04:48:01;;;;;;;22.52;5.35;;;;;;;14.46;63.22;101187.34;5023612;28;20038;-83
2023/01/22 04:50:29;;;;;;;21.85;5.72;;;;;;;14.45;63.55;101189.19;5024750;28;20034;-83
2023/01/22 04:52:56;;;;;;;15.27;5.50;;;;;;;14.53;63.05;101177.66;5022243;28;20026;-84
2023/01/22 04:55:22;;;;;;;26.92;6.63;;;;;;;14.53;62.95;101178.53;5013670;28;20037;-84
2023/01/22 04:57:48;;;;;;;13.68;3.67;;;;;;;14.49;62.73;101189.78;5013665;28;20429;-84
2023/01/22 05:00:14;;;;;;;16.45;4.45;;;;;;;14.44;62.35;101183.91;5032856;28;20041;-84
2023/01/22 05:02:40;;;;;;;13.35;3.60;;;;;;;14.34;62.76;101188.44;4981934;28;20113;-84
2023/01/22 05:05:07;;;;;;;18.63;5.20;;;;;;;14.43;62.49;101203.84;5032615;28;20069;-83
2023/01/22 05:07:32;;;;;;;17.75;4.22;;;;;;;14.32;62.77;101203.88;5033135;28;20519;-84
2023/01/22 05:09:58;;;;;;;14.27;5.28;;;;;;;14.27;62.55;101203.44;5033035;28;20026;-84
2023/01/22 05:12:24;;;;;;;24.15;4.93;;;;;;;14.25;62.68;101221.69;5033163;28;20033;-84
2023/01/22 05:14:49;;;;;;;17.45;4.55;;;;;;;14.29;63.08;101225.81;5034284;28;20032;-83
2023/01/22 05:17:15;;;;;;;22.00;4.97;;;;;;;14.34;62.82;101226.31;5035822;28;20576;-84
2023/01/22 05:19:40;;;;;;;23.70;4.90;;;;;;;14.19;63.14;101215.78;5047099;28;20009;-84
2023/01/22 05:22:06;;;;;;;14.30;4.43;;;;;;;14.27;63.01;101211.56;5057754;28;20060;-84
2023/01/22 05:24:31;;;;;;;21.00;4.82;;;;;;;14.41;62.72;101225.63;5057513;28;20089;-84
2023/01/22 05:26:57;;;;;;;16.52;3.90;;;;;;;14.47;62.57;101226.94;5049066;28;20037;-84
2023/01/22 05:29:26;;;;;;;33.80;5.10;;;;;;;14.53;62.59;101237.22;5047286;28;20029;-83
2023/01/22 05:31:53;;;;;;;23.17;4.82;;;;;;;14.59;62.38;101244.78;5041414;28;20068;-84
2023/01/22 05:34:18;;;;;;;18.60;5.85;;;;;;;14.48;62.85;101239.47;5034428;28;20116;-83
2023/01/22 05:36:44;;;;;;;25.20;6.20;;;;;;;14.39;63.18;101245.72;5030405;28;20124;-85
2023/01/22 05:39:09;;;;;;;19.63;4.82;;;;;;;14.42;63.65;101253.56;5028968;28;20026;-83
2023/01/22 05:41:35;;;;;;;11.77;3.88;;;;;;;14.47;63.47;101249.44;5037220;28;20386;-84
2023/01/22 05:44:01;;;;;;;25.83;5.88;;;;;;;14.52;63.34;101243.66;5038678;28;20042;-82
2023/01/22 05:46:27;;;;;;;20.30;5.93;;;;;;;14.36;64.18;101246.84;5035767;28;20473;-84
2023/01/22 05:48:53;;;;;;;22.05;4.35;;;;;;;14.40;63.84;101253.66;5032940;28;20033;-84
2023/01/22 05:51:18;;;;;;;30.63;5.85;;;;;;;14.26;64.40;101255.84;5034310;28;20041;-82
2023/01/22 05:53:44;;;;;;;23.15;5.22;;;;;;;14.27;64.48;101260.28;5032429;28;20025;-85
2023/01/22 05:56:10;;;;;;;31.67;7.22;;;;;;;14.33;64.49;101255.22;5032178;28;20126;-86
2023/01/22 05:58:36;;;;;;;16.58;4.00;;;;;;;14.37;64.66;101263.94;5034886;28;20033;-88
2023/01/22 06:01:01;;;;;;;25.67;5.18;;;;;;;14.31;64.68;101270.69;5017415;28;20064;-88
2023/01/22 06:03:27;;;;;;;24.83;6.07;;;;;;;14.37;64.75;101274.75;5041947;28;20041;-91
2023/01/22 06:06:07;;;;;;;24.02;5.57;;;;;;;14.19;65.31;101267.19;5020245;28;20030;-85
2023/01/22 06:08:33;;;;;;;28.00;5.80;;;;;;;14.27;65.50;101268.38;5011498;28;20549;-85
2023/01/22 06:11:03;;;;;;;18.27;6.03;;;;;;;14.26;65.65;101277.47;5024203;28;20033;-85
2023/01/22 06:13:31;;;;;;;20.38;4.45;;;;;;;14.33;65.68;101294.94;5013407;28;20030;-86
2023/01/22 06:15:57;;;;;;;20.05;5.28;;;;;;;14.37;65.45;101285.59;5031035;28;20033;-83
2023/01/22 06:18:23;;;;;;;19.45;5.55;;;;;;;14.32;65.91;101287.78;5030209;28;20113;-80
2023/01/22 06:20:49;;;;;;;22.38;4.50;;;;;;;14.39;65.58;101297.13;5026772;28;20029;-81
2023/01/22 06:23:15;;;;;;;22.25;4.57;;;;;;;14.30;65.99;101300.59;5018291;28;20041;-84
2023/01/22 06:25:41;;;;;;;28.08;5.43;;;;;;;14.25;66.18;101292.84;5027492;28;20124;-83
2023/01/22 06:28:07;;;;;;;13.30;4.35;;;;;;;14.21;66.69;101306.78;5024805;28;20088;-83
2023/01/22 06:30:32;;;;;;;24.60;4.10;;;;;;;14.22;66.60;101308.53;5010702;28;20034;-84
2023/01/22 06:32:58;;;;;;;19.42;4.13;;;;;;;14.11;67.08;101299.47;5010959;28;20056;-84
2023/01/22 06:35:23;;;;;;;26.00;4.50;;;;;;;14.16;66.87;101313.44;5020333;28;20030;-84
2023/01/22 06:37:50;;;;;;;16.65;4.20;;;;;;;14.12;66.95;101298.50;5029557;28;20033;-85
2023/01/22 06:40:16;;;;;;;20.75;4.00;;;;;;;14.11;66.85;101307.59;5016043;28;20110;-83
2023/01/22 06:42:42;;;;;;;18.95;4.35;;;;;;;14.02;67.24;101313.78;5032658;28;20026;-84
2023/01/22 06:45:07;;;;;;;19.80;4.45;;;;;;;14.07;67.70;101314.22;5034279;28;20145;-81
2023/01/22 06:47:33;;;;;;;29.85;4.88;;;;;;;14.12;67.30;101309.31;5029022;28;20102;-82
2023/01/22 06:49:58;;;;;;;32.55;6.38;;;;;;;14.09;67.87;101320.41;5016256;28;20149;-83
2023/01/22 06:52:24;;;;;;;20.58;4.63;;;;;;;14.11;67.91;101317.53;5008585;28;20025;-83
2023/01/22 06:54:49;;;;;;;20.30;4.70;;;;;;;14.14;68.01;101306.47;5009768;28;20049;-83
2023/01/22 06:57:15;;;;;;;16.77;5.68;;;;;;;14.05;67.81;101299.13;5008956;28;20033;-80
2023/01/22 06:59:40;;;;;;;13.80;4.72;;;;;;;14.02;68.04;101308.38;5013313;28;20037;-80
2023/01/22 07:02:06;;;;;;;22.55;5.63;;;;;;;14.17;68.08;101307.06;5028582;28;20932;-81
2023/01/22 07:04:31;;;;;;;22.83;4.95;;;;;;;14.36;68.09;101302.81;5028574;28;20029;-82
2023/01/22 07:06:57;;;;;;;24.83;5.70;;;;;;;14.30;67.89;101298.75;5028182;28;20481;-81
2023/01/22 07:09:22;;;;;;;18.33;5.63;;;;;;;14.37;68.06;101313.47;5028424;28;20025;-81
2023/01/22 07:11:48;;;;;;;23.13;6.05;;;;;;;14.41;68.66;101324.91;5028592;28;20029;-80
2023/01/22 07:14:13;;;;;;;25.35;4.95;;;;;;;14.22;69.66;101330.16;5030190;28;20508;-81
2023/01/22 07:16:39;;;;;;;14.20;5.13;;;;;;;14.25;69.43;101321.78;5028761;28;20028;-80
2023/01/22 07:19:04;;;;;;;23.08;5.82;;;;;;;14.32;69.82;101331.06;5027895;28;20029;-81
2023/01/22 07:21:30;;;;;;;25.98;5.15;;;;;;;14.36;69.72;101325.31;5027942;28;20469;-81
2023/01/22 07:23:55;;;;;;;22.48;5.28;;;;;;;14.28;70.21;101318.81;5026252;28;20100;-81
2023/01/22 07:26:21;;;;;;;15.70;4.55;;;;;;;14.28;69.86;101333.19;5024521;28;20037;-80
2023/01/22 07:28:46;;;;;;;23.60;5.70;;;;;;;14.30;70.22;101333.06;5029190;28;20042;-80
2023/01/22 07:31:12;;;;;;;22.90;5.15;;;;;;;14.31;70.12;101334.78;5028209;28;20025;-80
2023/01/22 07:33:37;;;;;;;25.50;6.00;;;;;;;14.23;70.41;101342.69;5020895;28;20104;-81
2023/01/22 07:36:03;;;;;;;23.20;4.82;;;;;;;14.16;70.80;101343.22;5014152;28;20057;-83
2023/01/22 07:38:29;;;;;;;23.75;4.90;;;;;;;14.01;71.27;101347.22;5009418;28;20033;-85
2023/01/22 07:41:03;;;;;;;31.92;6.38;;;;;;;14.14;70.97;101338.91;5023727;28;20048;-88
2023/01/22 07:43:28;;;;;;;20.48;5.20;;;;;;;14.27;71.27;101344.16;5048687;28;20025;-84
2023/01/22 07:45:56;;;;;;;18.27;5.55;;;;;;;14.30;70.62;101341.19;5046660;28;20048;-86
2023/01/22 07:48:22;;;;;;;26.77;5.45;;;;;;;14.37;70.46;101355.94;5032951;28;20033;-87
2023/01/22 07:50:48;;;;;;;20.70;6.18;;;;;;;14.46;70.21;101361.41;5022736;28;20160;-92
2023/01/22 07:53:13;;;;;;;29.98;5.43;;;;;;;14.40;70.28;101339.44;4993480;28;20061;-92
2023/01/22 07:55:39;;;;;;;22.92;5.55;;;;;;;14.58;70.14;101345.97;5023587;28;20040;-83
2023/01/22 07:58:06;;;;;;;27.80;5.18;;;;;;;14.80;68.58;101356.63;5028225;28;20534;-91
2023/01/22 08:00:34;;;;;;;25.88;7.55;;;;;;;14.96;68.40;101354.31;5028967;28;20099;-88
2023/01/22 08:03:00;;;;;;;22.25;5.63;;;;;;;15.02;67.78;101363.72;5033586;28;20106;-88
2023/01/22 08:05:26;;;;;;;30.30;5.82;;;;;;;15.02;67.50;101363.72;5034399;28;20105;-91
2023/01/22 08:07:51;;;;;;;26.90;5.93;;;;;;;15.04;67.19;101369.91;5030740;28;20456;-91
2023/01/22 08:10:17;;;;;;;47.63;8.13;;;;;;;15.01;67.75;101373.75;5032022;28;20030;-90
2023/01/22 08:12:43;;;;;;;27.20;5.70;;;;;;;15.08;67.65;101377.59;5030884;28;20420;-89
2023/01/22 08:15:10;;;;;;;22.92;7.18;;;;;;;15.11;67.00;101379.19;5033821;28;20036;-88
2023/01/22 08:17:35;;;;;;;18.45;5.38;;;;;;;15.03;67.64;101369.03;5040838;28;20087;-88
2023/01/22 08:20:01;;;;;;;25.70;5.88;;;;;;;15.03;67.51;101369.03;5032645;28;20021;-88
2023/01/22 08:22:27;;;;;;;26.63;5.65;;;;;;;15.22;67.47;101382.69;5030779;28;20040;-89
2023/01/22 08:24:53;;;;;;;24.70;5.15;;;;;;;15.39;67.02;101383.00;5030566;28;20033;-89
2023/01/22 08:27:19;;;;;;;23.52;6.05;;;;;;;15.27;67.33;101380.41;5035267;28;20621;-87
2023/01/22 08:29:45;;;;;;;25.52;6.10;;;;;;;15.48;66.77;101395.75;5033016;28;20179;-90
2023/01/22 08:32:10;;;;;;;13.70;5.30;;;;;;;15.33;67.13;101372.72;5033768;28;20068;-89
2023/01/22 08:34:36;;;;;;;28.27;5.50;;;;;;;15.48;66.75;101383.06;5037174;28;20523;-90
2023/01/22 08:37:01;;;;;;;19.40;5.60;;;;;;;15.59;66.86;101390.25;5040870;28;20505;-90
2023/01/22 08:39:27;;;;;;;25.45;4.90;;;;;;;15.49;66.91;101384.78;5031633;28;20025;-90
2023/01/22 08:41:56;;;;;;;35.03;6.30;;;;;;;15.74;66.74;101399.72;5036646;28;20068;-87
2023/01/22 08:44:22;;;;;;;30.85;6.55;;;;;;;15.76;66.28;101386.84;5053602;28;20065;-84
2023/01/22 08:46:47;;;;;;;29.95;6.93;;;;;;;15.79;65.93;101392.88;5055664;28;20082;-86
2023/01/22 08:49:13;;;;;;;27.58;6.63;;;;;;;15.84;66.15;101389.72;5019598;28;20053;-90
2023/01/22 08:51:39;;;;;;;29.15;6.60;;;;;;;15.81;66.22;101383.75;5033861;28;20055;-90
2023/01/22 08:54:05;;;;;;;29.35;6.28;;;;;;;15.94;66.08;101396.03;5033856;28;20017;-90
2023/01/22 08:56:30;;;;;;;37.80;4.75;;;;;;;16.13;65.94;101400.63;4991106;28;20415;-89
2023/01/22 08:58:59;;;;;;;27.83;5.70;;;;;;;16.42;65.36;101404.19;4991568;28;20038;-86
2023/01/22 09:01:24;;;;;;;24.73;5.63;;;;;;;16.46;64.26;101389.34;4994128;28;20049;-90
2023/01/22 09:03:50;;;;;;;28.45;6.32;;;;;;;16.59;63.71;101397.22;4994287;28;20034;-91
2023/01/22 09:06:15;;;;;;;22.50;5.72;;;;;;;16.57;63.75;101405.53;4994690;28;20058;-88
2023/01/22 09:08:41;;;;;;;45.60;6.53;;;;;;;16.49;63.90;101393.59;4996927;28;20529;-88
2023/01/22 09:11:07;;;;;;;17.50;5.15;;;;;;;16.47;64.07;101392.91;4994866;28;20042;-90
2023/01/22 09:13:32;;;;;;;29.33;6.40;;;;;;;16.34;64.67;101393.19;4992666;28;20078;-89
2023/01/22 09:15:58;;;;;;;27.10;5.78;;;;;;;16.16;65.00;101389.47;4992199;28;20054;-88
2023/01/22 09:18:24;;;;;;;21.10;5.32;;;;;;;16.00;65.71;101390.03;4992909;28;20149;-87
2023/01/22 09:20:50;;;;;;;25.67;4.93;;;;;;;16.13;65.71;101400.63;4993165;28;20037;-90
2023/01/22 09:23:16;;;;;;;38.45;5.30;;;;;;;16.06;65.95;101386.75;4992978;28;20086;-91
2023/01/22 09:25:41;;;;;;;20.15;5.47;;;;;;;16.02;65.85;101393.50;4994427;28;20042;-90
2023/01/22 09:28:11;;;;;;;23.90;5.25;;;;;;;15.88;66.64;101399.31;5026714;28;20041;-89
2023/01/22 09:30:39;;;;;;;27.02;6.38;;;;;;;15.86;67.32;101381.44;5039981;28;20044;-90
2023/01/22 09:33:04;;;;;;;21.08;6.80;;;;;;;16.05;67.26;101387.78;5053710;28;20028;-84
2023/01/22 09:35:30;;;;;;;24.20;6.32;;;;;;;16.13;66.82;101384.34;5056849;28;20037;-85
2023/01/22 09:37:55;;;;;;;27.92;5.53;;;;;;;15.96;67.17;101383.16;5056998;28;20044;-85
2023/01/22 09:40:31;;;;;;;44.92;7.93;;;;;;;16.01;66.81;101386.34;5058408;28;20097;-87
2023/01/22 09:43:26;;;;;;;27.58;8.55;;;;;;;15.84;67.32;101364.47;5058890;28;20028;-88
2023/01/22 09:45:54;;;;;;;41.20;6.88;;;;;;;15.71;68.27;101378.28;5057535;28;20056;-86
2023/01/22 09:48:21;;;;;;;29.73;6.43;;;;;;;15.83;67.80;101382.59;5052972;28;20021;-89
2023/01/22 09:50:47;;;;;;;34.28;7.28;;;;;;;15.68;67.49;101373.16;5033325;28;20021;-89
2023/01/22 09:53:16;;;;;;;27.20;6.80;;;;;;;15.70;67.91;101376.56;5033894;28;20052;-87
2023/01/22 09:55:48;;;;;;;38.38;6.57;;;;;;;15.67;68.01;101379.56;5033483;28;20108;-89
2023/01/22 09:58:17;;;;;;;31.48;6.57;;;;;;;15.66;68.27;101391.38;5030815;28;20041;-89
2023/01/22 10:00:59;;;;;;;28.80;5.53;;;;;;;15.59;68.38;101384.81;5032471;28;20029;-87
2023/01/22 10:03:39;;;;;;;21.58;5.85;;;;;;;15.64;68.52;101377.13;5033114;28;20022;-91
2023/01/22 10:06:14;;;;;;;27.55;5.63;;;;;;;15.71;68.22;101375.59;5032497;28;20057;-89
2023/01/22 10:08:48;;;;;;;22.48;5.72;;;;;;;15.76;67.93;101381.44;5034163;28;20549;-88
2023/01/22 10:11:14;;;;;;;24.73;6.22;;;;;;;15.76;68.17;101387.72;5033050;28;20029;-89
2023/01/22 10:13:39;;;;;;;18.30;6.97;;;;;;;15.53;68.79;101385.38;5034510;28;20037;-88
2023/01/22 10:16:05;;;;;;;42.60;8.82;;;;;;;15.46;68.96;101389.59;5034076;28;20022;-89
2023/01/22 10:18:49;;;;;;;27.55;7.68;;;;;;;15.35;69.55;101378.88;5032317;28;20036;-89
2023/01/22 10:21:23;;;;;;;32.78;8.10;;;;;;;15.41;69.58;101381.03;5036383;28;20037;-88
2023/01/22 10:23:50;;;;;;;27.55;7.60;;;;;;;15.35;69.19;101363.44;5042077;28;20025;-87
2023/01/22 10:26:24;;;;;;;45.75;9.27;;;;;;;15.48;69.24;101379.50;5018208;28;20079;-90
2023/01/22 10:28:54;;;;;;;30.23;7.50;;;;;;;15.26;69.96;101367.84;5015336;28;20048;-88
2023/01/22 10:31:26;;;;;;;28.48;8.13;;;;;;;14.91;70.90;101356.56;5018023;28;20034;-90
2023/01/22 10:33:59;;;;;;;;;;;;;;;14.85;71.61;101381.47;5013664;28;20029;-87
2023/01/22 10:36:25;;;;;;;;;;;;;;;14.69;72.42;101372.97;4996192;28;20245;-87
2023/01/22 10:39:01;;;;;;;36.70;8.55;;;;;;;14.77;72.75;101373.16;4999462;28;19968;-88
2023/01/22 10:41:29;;;;;;;35.13;6.70;;;;;;;14.78;72.91;101374.88;5031361;28;20039;-85
2023/01/22 10:43:54;;;;;;;29.35;6.85;;;;;;;14.83;72.47;101360.94;5032340;28;20045;-84
2023/01/22 10:46:25;;;;;;;33.00;7.93;;;;;;;14.75;73.01;101371.56;5044747;28;20017;-85
2023/01/22 10:49:02;;;;;;;38.80;7.18;;;;;;;14.82;72.94;101360.09;5045118;28;20037;-82
2023/01/22 10:51:37;;;;;;;26.65;5.32;;;;;;;14.87;72.46;101376.78;5031555;28;20052;-82
2023/01/22 10:54:05;;;;;;;28.58;5.75;;;;;;;14.82;72.57;101376.34;5030846;28;20227;-88
2023/01/22 10:56:33;;;;;;;53.75;6.72;;;;;;;14.83;72.51;101375.31;5031230;28;20036;-85
2023/01/22 10:59:04;;;;;;;35.83;7.05;;;;;;;14.83;72.74;101383.44;4994711;28;20045;-86
2023/01/22 11:01:38;;;;;;;21.35;5.53;;;;;;;14.59;73.01;101372.03;5029928;28;20123;-86
2023/01/22 11:04:25;;;;;;;27.70;6.28;;;;;;;14.55;73.40;101371.47;5029708;28;20037;-86
2023/01/22 11:06:56;;;;;;;33.20;6.07;;;;;;;14.69;73.62;101379.25;5029917;28;20112;-86
2023/01/22 11:09:45;;;;;;;34.80;7.50;;;;;;;14.82;73.12;101378.19;5030849;28;20034;-88
2023/01/22 11:12:44;;;;;;;33.92;7.63;;;;;;;14.69;73.19;101367.56;5029439;28;20037;-84
2023/01/22 11:15:32;;;;;;;33.92;6.93;;;;;;;14.53;74.11;101383.41;5029887;28;20805;-78
2023/01/22 11:18:02;;;;;;;26.15;7.28;;;;;;;14.68;74.09;101376.66;4967553;28;20054;-82
2023/01/22 11:20:47;;;;;;;35.97;14.07;;;;;;;14.94;73.29;101380.69;4952035;28;20042;-84
2023/01/22 11:23:23;;;;;;;37.67;8.07;;;;;;;15.15;72.17;101386.06;4968643;28;20054;-84
2023/01/22 11:25:54;;;;;;;44.83;9.43;;;;;;;15.29;71.90;101382.13;4968941;28;20035;-85